sensor_id;sensor_type;location;lat;lon;timestamp;P1;durP1;ratioP1;P2;durP2;ratioP2
249;SDS011;109;19.806;-70.704;2023-03-01T00:01:05;13.33;;;6.97;;
249;SDS011;109;19.806;-70.704;2023-03-01T00:03:33;14.23;;;6.80;;
249;SDS011;109;19.806;-70.704;2023-03-01T00:06:00;12.07;;;6.70;;
249;SDS011;109;19.806;-70.704;2023-03-01T00:08:28;18.93;;;8.03;;
249;SDS011;109;19.806;-70.704;2023-03-01T00:13:31;11.63;;;6.80;;
249;SDS011;109;19.806;-70.704;2023-03-01T00:15:58;12.63;;;7.23;;
249;SDS011;109;19.806;-70.704;2023-03-01T00:18:24;15.13;;;8.00;;
249;SDS011;109;19.806;-70.704;2023-03-01T00:20:54;22.00;;;7.57;;
249;SDS011;109;19.806;-70.704;2023-03-01T00:23:21;12.87;;;6.20;;
249;SDS011;109;19.806;-70.704;2023-03-01T00:25:48;12.83;;;6.87;;
249;SDS011;109;19.806;-70.704;2023-03-01T00:28:15;10.40;;;6.43;;
249;SDS011;109;19.806;-70.704;2023-03-01T00:30:42;11.80;;;7.60;;
249;SDS011;109;19.806;-70.704;2023-03-01T00:33:08;13.80;;;7.90;;
249;SDS011;109;19.806;-70.704;2023-03-01T00:35:35;21.40;;;7.90;;
249;SDS011;109;19.806;-70.704;2023-03-01T00:38:02;11.03;;;7.30;;
249;SDS011;109;19.806;-70.704;2023-03-01T00:40:30;18.60;;;7.33;;
249;SDS011;109;19.806;-70.704;2023-03-01T00:42:59;15.40;;;7.60;;
249;SDS011;109;19.806;-70.704;2023-03-01T00:45:27;20.03;;;7.37;;
249;SDS011;109;19.806;-70.704;2023-03-01T00:47:54;13.03;;;7.03;;
249;SDS011;109;19.806;-70.704;2023-03-01T00:50:21;18.07;;;7.00;;
249;SDS011;109;19.806;-70.704;2023-03-01T00:52:51;10.90;;;5.90;;
249;SDS011;109;19.806;-70.704;2023-03-01T00:55:19;7.83;;;6.10;;
249;SDS011;109;19.806;-70.704;2023-03-01T00:57:45;13.40;;;5.90;;
249;SDS011;109;19.806;-70.704;2023-03-01T01:00:13;17.77;;;6.90;;
249;SDS011;109;19.806;-70.704;2023-03-01T01:02:40;9.93;;;5.90;;
249;SDS011;109;19.806;-70.704;2023-03-01T01:05:14;12.10;;;6.20;;
249;SDS011;109;19.806;-70.704;2023-03-01T01:07:40;13.17;;;6.03;;
249;SDS011;109;19.806;-70.704;2023-03-01T01:10:14;12.13;;;5.70;;
249;SDS011;109;19.806;-70.704;2023-03-01T01:12:45;14.67;;;5.80;;
249;SDS011;109;19.806;-70.704;2023-03-01T01:15:18;12.07;;;5.97;;
249;SDS011;109;19.806;-70.704;2023-03-01T01:17:45;10.87;;;5.80;;
249;SDS011;109;19.806;-70.704;2023-03-01T01:20:19;12.33;;;4.90;;
249;SDS011;109;19.806;-70.704;2023-03-01T01:22:45;8.50;;;5.80;;
249;SDS011;109;19.806;-70.704;2023-03-01T01:25:19;11.27;;;5.33;;
249;SDS011;109;19.806;-70.704;2023-03-01T01:27:45;15.43;;;5.90;;
249;SDS011;109;19.806;-70.704;2023-03-01T01:30:19;8.70;;;5.00;;
249;SDS011;109;19.806;-70.704;2023-03-01T01:32:45;8.50;;;5.40;;
249;SDS011;109;19.806;-70.704;2023-03-01T01:35:19;7.47;;;6.30;;
249;SDS011;109;19.806;-70.704;2023-03-01T01:37:45;15.73;;;5.80;;
249;SDS011;109;19.806;-70.704;2023-03-01T01:40:19;11.17;;;5.70;;
249;SDS011;109;19.806;-70.704;2023-03-01T01:42:45;11.80;;;6.00;;
249;SDS011;109;19.806;-70.704;2023-03-01T01:45:33;11.77;;;5.40;;
249;SDS011;109;19.806;-70.704;2023-03-01T01:48:10;12.03;;;5.33;;
249;SDS011;109;19.806;-70.704;2023-03-01T01:50:54;11.43;;;5.40;;
249;SDS011;109;19.806;-70.704;2023-03-01T01:53:30;15.03;;;5.40;;
249;SDS011;109;19.806;-70.704;2023-03-01T01:55:58;9.70;;;5.60;;
249;SDS011;109;19.806;-70.704;2023-03-01T01:58:34;12.90;;;5.40;;
249;SDS011;109;19.806;-70.704;2023-03-01T02:01:01;17.33;;;5.90;;
249;SDS011;109;19.806;-70.704;2023-03-01T02:03:36;13.57;;;5.83;;
249;SDS011;109;19.806;-70.704;2023-03-01T02:06:31;13.40;;;5.27;;
249;SDS011;109;19.806;-70.704;2023-03-01T02:09:11;10.20;;;6.37;;
249;SDS011;109;19.806;-70.704;2023-03-01T02:11:48;10.57;;;6.13;;
249;SDS011;109;19.806;-70.704;2023-03-01T02:14:15;10.80;;;5.43;;
249;SDS011;109;19.806;-70.704;2023-03-01T02:16:48;10.50;;;5.70;;
249;SDS011;109;19.806;-70.704;2023-03-01T02:19:28;10.83;;;6.27;;
249;SDS011;109;19.806;-70.704;2023-03-01T02:22:31;19.80;;;6.60;;
249;SDS011;109;19.806;-70.704;2023-03-01T02:25:12;10.53;;;6.00;;
249;SDS011;109;19.806;-70.704;2023-03-01T02:30:50;14.40;;;6.30;;
249;SDS011;109;19.806;-70.704;2023-03-01T02:33:42;13.63;;;6.97;;
249;SDS011;109;19.806;-70.704;2023-03-01T02:36:15;14.13;;;7.10;;
249;SDS011;109;19.806;-70.704;2023-03-01T02:38:53;16.50;;;6.57;;
249;SDS011;109;19.806;-70.704;2023-03-01T02:41:37;14.63;;;6.03;;
249;SDS011;109;19.806;-70.704;2023-03-01T02:44:25;27.67;;;6.33;;
249;SDS011;109;19.806;-70.704;2023-03-01T02:47:04;12.80;;;6.43;;
249;SDS011;109;19.806;-70.704;2023-03-01T02:49:32;13.93;;;6.53;;
249;SDS011;109;19.806;-70.704;2023-03-01T02:57:35;8.83;;;5.70;;
249;SDS011;109;19.806;-70.704;2023-03-01T03:00:14;9.07;;;6.03;;
249;SDS011;109;19.806;-70.704;2023-03-01T03:03:01;14.30;;;5.80;;
249;SDS011;109;19.806;-70.704;2023-03-01T03:05:34;9.10;;;5.40;;
249;SDS011;109;19.806;-70.704;2023-03-01T03:08:02;11.90;;;5.53;;
249;SDS011;109;19.806;-70.704;2023-03-01T03:10:37;11.90;;;5.97;;
249;SDS011;109;19.806;-70.704;2023-03-01T03:13:13;15.47;;;5.43;;
249;SDS011;109;19.806;-70.704;2023-03-01T03:15:42;26.53;;;6.90;;
249;SDS011;109;19.806;-70.704;2023-03-01T03:18:16;11.27;;;5.40;;
249;SDS011;109;19.806;-70.704;2023-03-01T03:20:44;12.63;;;5.10;;
249;SDS011;109;19.806;-70.704;2023-03-01T03:23:18;13.07;;;6.20;;
249;SDS011;109;19.806;-70.704;2023-03-01T03:25:47;14.30;;;5.53;;
249;SDS011;109;19.806;-70.704;2023-03-01T03:28:23;15.83;;;5.83;;
249;SDS011;109;19.806;-70.704;2023-03-01T03:30:49;12.53;;;6.00;;
249;SDS011;109;19.806;-70.704;2023-03-01T03:33:23;14.03;;;6.73;;
249;SDS011;109;19.806;-70.704;2023-03-01T03:35:50;19.60;;;7.10;;
249;SDS011;109;19.806;-70.704;2023-03-01T03:38:23;13.20;;;6.60;;
249;SDS011;109;19.806;-70.704;2023-03-01T03:41:08;11.43;;;6.63;;
249;SDS011;109;19.806;-70.704;2023-03-01T03:43:41;12.30;;;6.77;;
249;SDS011;109;19.806;-70.704;2023-03-01T03:46:28;17.83;;;8.10;;
249;SDS011;109;19.806;-70.704;2023-03-01T03:49:02;11.97;;;6.87;;
249;SDS011;109;19.806;-70.704;2023-03-01T03:51:28;14.10;;;7.17;;
249;SDS011;109;19.806;-70.704;2023-03-01T03:54:02;20.90;;;8.07;;
249;SDS011;109;19.806;-70.704;2023-03-01T03:56:28;14.00;;;7.30;;
249;SDS011;109;19.806;-70.704;2023-03-01T03:59:09;14.83;;;7.60;;
249;SDS011;109;19.806;-70.704;2023-03-01T04:04:11;15.73;;;8.60;;
249;SDS011;109;19.806;-70.704;2023-03-01T04:06:44;14.90;;;7.93;;
249;SDS011;109;19.806;-70.704;2023-03-01T04:09:10;17.93;;;8.20;;
249;SDS011;109;19.806;-70.704;2023-03-01T04:11:43;15.57;;;7.70;;
249;SDS011;109;19.806;-70.704;2023-03-01T04:14:09;12.37;;;8.50;;
249;SDS011;109;19.806;-70.704;2023-03-01T04:16:43;19.93;;;8.60;;
249;SDS011;109;19.806;-70.704;2023-03-01T04:19:09;13.80;;;7.30;;
249;SDS011;109;19.806;-70.704;2023-03-01T04:21:43;45.03;;;9.20;;
249;SDS011;109;19.806;-70.704;2023-03-01T04:24:09;14.80;;;8.00;;
249;SDS011;109;19.806;-70.704;2023-03-01T04:26:43;21.53;;;7.43;;
249;SDS011;109;19.806;-70.704;2023-03-01T04:29:09;13.40;;;7.17;;
249;SDS011;109;19.806;-70.704;2023-03-01T04:31:43;12.83;;;6.80;;
249;SDS011;109;19.806;-70.704;2023-03-01T04:34:09;11.60;;;6.57;;
249;SDS011;109;19.806;-70.704;2023-03-01T04:36:42;19.33;;;7.27;;
249;SDS011;109;19.806;-70.704;2023-03-01T04:39:08;17.27;;;7.40;;
249;SDS011;109;19.806;-70.704;2023-03-01T04:41:44;22.43;;;8.13;;
249;SDS011;109;19.806;-70.704;2023-03-01T04:44:17;15.17;;;7.47;;
249;SDS011;109;19.806;-70.704;2023-03-01T04:46:51;15.30;;;7.93;;
249;SDS011;109;19.806;-70.704;2023-03-01T04:49:31;12.53;;;6.53;;
249;SDS011;109;19.806;-70.704;2023-03-01T04:51:57;23.40;;;8.20;;
249;SDS011;109;19.806;-70.704;2023-03-01T04:54:34;22.73;;;8.57;;
249;SDS011;109;19.806;-70.704;2023-03-01T04:57:02;21.67;;;8.37;;
249;SDS011;109;19.806;-70.704;2023-03-01T04:59:36;22.17;;;8.33;;
249;SDS011;109;19.806;-70.704;2023-03-01T05:02:02;25.13;;;7.63;;
249;SDS011;109;19.806;-70.704;2023-03-01T05:04:35;20.03;;;7.50;;
249;SDS011;109;19.806;-70.704;2023-03-01T05:07:01;16.27;;;7.40;;
249;SDS011;109;19.806;-70.704;2023-03-01T05:09:35;18.33;;;6.90;;
249;SDS011;109;19.806;-70.704;2023-03-01T05:12:01;14.37;;;7.30;;
249;SDS011;109;19.806;-70.704;2023-03-01T05:14:35;16.00;;;6.40;;
249;SDS011;109;19.806;-70.704;2023-03-01T05:17:01;16.23;;;6.60;;
249;SDS011;109;19.806;-70.704;2023-03-01T05:19:36;13.83;;;6.20;;
249;SDS011;109;19.806;-70.704;2023-03-01T05:22:09;21.43;;;7.67;;
249;SDS011;109;19.806;-70.704;2023-03-01T05:24:43;10.63;;;6.40;;
249;SDS011;109;19.806;-70.704;2023-03-01T05:27:09;10.50;;;5.80;;
249;SDS011;109;19.806;-70.704;2023-03-01T05:29:43;15.60;;;5.97;;
249;SDS011;109;19.806;-70.704;2023-03-01T05:32:09;14.63;;;6.60;;
249;SDS011;109;19.806;-70.704;2023-03-01T05:34:48;8.43;;;6.10;;
249;SDS011;109;19.806;-70.704;2023-03-01T05:37:14;9.50;;;5.70;;
249;SDS011;109;19.806;-70.704;2023-03-01T05:39:48;11.10;;;6.20;;
249;SDS011;109;19.806;-70.704;2023-03-01T05:42:15;18.20;;;6.43;;
249;SDS011;109;19.806;-70.704;2023-03-01T05:44:55;6.63;;;5.57;;
249;SDS011;109;19.806;-70.704;2023-03-01T05:47:35;9.10;;;5.60;;
249;SDS011;109;19.806;-70.704;2023-03-01T05:50:01;8.93;;;6.03;;
249;SDS011;109;19.806;-70.704;2023-03-01T05:52:35;14.23;;;5.80;;
249;SDS011;109;19.806;-70.704;2023-03-01T05:55:01;14.23;;;6.27;;
249;SDS011;109;19.806;-70.704;2023-03-01T05:57:34;15.53;;;5.90;;
249;SDS011;109;19.806;-70.704;2023-03-01T06:00:00;10.03;;;6.13;;
249;SDS011;109;19.806;-70.704;2023-03-01T06:02:38;10.70;;;5.97;;
249;SDS011;109;19.806;-70.704;2023-03-01T06:05:12;13.70;;;5.60;;
249;SDS011;109;19.806;-70.704;2023-03-01T06:07:40;16.67;;;5.70;;
249;SDS011;109;19.806;-70.704;2023-03-01T06:10:14;18.63;;;6.80;;
249;SDS011;109;19.806;-70.704;2023-03-01T06:12:41;29.23;;;7.10;;
249;SDS011;109;19.806;-70.704;2023-03-01T06:15:16;26.90;;;8.43;;
249;SDS011;109;19.806;-70.704;2023-03-01T06:17:43;21.77;;;7.20;;
249;SDS011;109;19.806;-70.704;2023-03-01T06:20:18;28.70;;;7.60;;
249;SDS011;109;19.806;-70.704;2023-03-01T06:22:47;22.37;;;7.70;;
249;SDS011;109;19.806;-70.704;2023-03-01T06:25:22;19.57;;;6.63;;
249;SDS011;109;19.806;-70.704;2023-03-01T06:27:49;17.17;;;7.47;;
249;SDS011;109;19.806;-70.704;2023-03-01T06:30:25;19.70;;;8.13;;
249;SDS011;109;19.806;-70.704;2023-03-01T06:32:52;23.47;;;7.53;;
249;SDS011;109;19.806;-70.704;2023-03-01T06:35:33;19.83;;;7.10;;
249;SDS011;109;19.806;-70.704;2023-03-01T06:38:07;24.80;;;8.03;;
249;SDS011;109;19.806;-70.704;2023-03-01T06:40:41;13.53;;;7.47;;
249;SDS011;109;19.806;-70.704;2023-03-01T06:43:07;13.90;;;7.23;;
249;SDS011;109;19.806;-70.704;2023-03-01T06:45:41;10.33;;;6.50;;
249;SDS011;109;19.806;-70.704;2023-03-01T06:48:21;13.93;;;7.27;;
249;SDS011;109;19.806;-70.704;2023-03-01T06:50:47;12.20;;;6.50;;
249;SDS011;109;19.806;-70.704;2023-03-01T06:53:21;10.40;;;6.77;;
249;SDS011;109;19.806;-70.704;2023-03-01T06:55:47;11.00;;;6.43;;
249;SDS011;109;19.806;-70.704;2023-03-01T06:58:26;12.10;;;6.80;;
249;SDS011;109;19.806;-70.704;2023-03-01T07:00:52;12.50;;;6.10;;
249;SDS011;109;19.806;-70.704;2023-03-01T07:03:25;8.13;;;6.50;;
249;SDS011;109;19.806;-70.704;2023-03-01T07:05:51;11.87;;;6.87;;
249;SDS011;109;19.806;-70.704;2023-03-01T07:08:25;18.70;;;7.70;;
249;SDS011;109;19.806;-70.704;2023-03-01T07:10:57;17.03;;;7.73;;
249;SDS011;109;19.806;-70.704;2023-03-01T07:13:31;18.73;;;7.53;;
249;SDS011;109;19.806;-70.704;2023-03-01T07:15:58;17.30;;;7.33;;
249;SDS011;109;19.806;-70.704;2023-03-01T07:18:31;16.63;;;7.50;;
249;SDS011;109;19.806;-70.704;2023-03-01T07:20:57;12.93;;;6.87;;
249;SDS011;109;19.806;-70.704;2023-03-01T07:23:31;10.93;;;7.03;;
249;SDS011;109;19.806;-70.704;2023-03-01T07:25:57;12.60;;;7.00;;
249;SDS011;109;19.806;-70.704;2023-03-01T07:28:31;17.83;;;7.60;;
249;SDS011;109;19.806;-70.704;2023-03-01T07:31:08;12.90;;;8.10;;
249;SDS011;109;19.806;-70.704;2023-03-01T07:33:34;16.73;;;7.63;;
249;SDS011;109;19.806;-70.704;2023-03-01T07:36:07;11.40;;;8.17;;
249;SDS011;109;19.806;-70.704;2023-03-01T07:38:42;17.47;;;8.20;;
249;SDS011;109;19.806;-70.704;2023-03-01T07:41:16;10.70;;;8.40;;
249;SDS011;109;19.806;-70.704;2023-03-01T07:43:42;12.77;;;9.03;;
249;SDS011;109;19.806;-70.704;2023-03-01T07:46:16;14.27;;;10.00;;
249;SDS011;109;19.806;-70.704;2023-03-01T07:48:56;15.70;;;9.80;;
249;SDS011;109;19.806;-70.704;2023-03-01T07:51:23;17.33;;;12.30;;
249;SDS011;109;19.806;-70.704;2023-03-01T07:53:57;15.17;;;11.40;;
249;SDS011;109;19.806;-70.704;2023-03-01T07:56:23;17.00;;;12.73;;
249;SDS011;109;19.806;-70.704;2023-03-01T07:58:56;20.80;;;11.90;;
249;SDS011;109;19.806;-70.704;2023-03-01T08:01:24;18.80;;;12.90;;
249;SDS011;109;19.806;-70.704;2023-03-01T08:03:58;27.60;;;13.63;;
249;SDS011;109;19.806;-70.704;2023-03-01T08:06:24;18.97;;;12.53;;
249;SDS011;109;19.806;-70.704;2023-03-01T08:08:58;22.40;;;12.90;;
249;SDS011;109;19.806;-70.704;2023-03-01T08:11:24;20.70;;;13.30;;
249;SDS011;109;19.806;-70.704;2023-03-01T08:13:58;23.23;;;11.53;;
249;SDS011;109;19.806;-70.704;2023-03-01T08:16:24;15.20;;;10.20;;
249;SDS011;109;19.806;-70.704;2023-03-01T08:19:02;21.70;;;10.80;;
249;SDS011;109;19.806;-70.704;2023-03-01T08:21:40;23.90;;;10.37;;
249;SDS011;109;19.806;-70.704;2023-03-01T08:24:06;15.37;;;9.33;;
249;SDS011;109;19.806;-70.704;2023-03-01T08:26:42;14.20;;;9.30;;
249;SDS011;109;19.806;-70.704;2023-03-01T08:29:08;16.00;;;9.80;;
249;SDS011;109;19.806;-70.704;2023-03-01T08:31:42;13.23;;;8.80;;
249;SDS011;109;19.806;-70.704;2023-03-01T08:34:09;17.47;;;9.90;;
249;SDS011;109;19.806;-70.704;2023-03-01T08:36:51;13.80;;;9.10;;
249;SDS011;109;19.806;-70.704;2023-03-01T08:39:25;15.77;;;9.70;;
249;SDS011;109;19.806;-70.704;2023-03-01T08:41:51;15.03;;;8.77;;
249;SDS011;109;19.806;-70.704;2023-03-01T08:44:25;24.07;;;9.77;;
249;SDS011;109;19.806;-70.704;2023-03-01T08:47:12;11.90;;;8.73;;
249;SDS011;109;19.806;-70.704;2023-03-01T08:49:46;12.13;;;9.00;;
249;SDS011;109;19.806;-70.704;2023-03-01T08:52:12;11.67;;;8.33;;
249;SDS011;109;19.806;-70.704;2023-03-01T08:54:45;15.00;;;8.53;;
249;SDS011;109;19.806;-70.704;2023-03-01T08:57:13;12.60;;;9.47;;
249;SDS011;109;19.806;-70.704;2023-03-01T08:59:47;17.67;;;8.97;;
249;SDS011;109;19.806;-70.704;2023-03-01T09:02:14;11.10;;;9.57;;
249;SDS011;109;19.806;-70.704;2023-03-01T09:04:50;12.40;;;8.90;;
249;SDS011;109;19.806;-70.704;2023-03-01T09:07:16;12.17;;;8.93;;
249;SDS011;109;19.806;-70.704;2023-03-01T09:09:50;12.70;;;9.00;;
249;SDS011;109;19.806;-70.704;2023-03-01T09:12:18;11.00;;;8.83;;
249;SDS011;109;19.806;-70.704;2023-03-01T09:14:52;12.20;;;8.27;;
249;SDS011;109;19.806;-70.704;2023-03-01T09:17:18;13.47;;;8.73;;
249;SDS011;109;19.806;-70.704;2023-03-01T09:19:53;11.47;;;8.93;;
249;SDS011;109;19.806;-70.704;2023-03-01T09:22:19;13.00;;;10.10;;
249;SDS011;109;19.806;-70.704;2023-03-01T09:24:53;14.60;;;9.17;;
249;SDS011;109;19.806;-70.704;2023-03-01T09:27:27;13.67;;;8.67;;
249;SDS011;109;19.806;-70.704;2023-03-01T09:30:01;15.60;;;9.80;;
249;SDS011;109;19.806;-70.704;2023-03-01T09:32:29;12.10;;;9.20;;
249;SDS011;109;19.806;-70.704;2023-03-01T09:35:04;16.17;;;9.80;;
249;SDS011;109;19.806;-70.704;2023-03-01T09:37:35;17.80;;;8.93;;
249;SDS011;109;19.806;-70.704;2023-03-01T09:40:20;16.60;;;9.27;;
249;SDS011;109;19.806;-70.704;2023-03-01T09:43:01;12.20;;;9.33;;
249;SDS011;109;19.806;-70.704;2023-03-01T09:45:54;12.63;;;8.33;;
249;SDS011;109;19.806;-70.704;2023-03-01T09:48:33;12.57;;;9.33;;
249;SDS011;109;19.806;-70.704;2023-03-01T09:51:22;19.13;;;10.13;;
249;SDS011;109;19.806;-70.704;2023-03-01T09:54:06;16.43;;;9.83;;
249;SDS011;109;19.806;-70.704;2023-03-01T09:56:40;11.20;;;8.90;;
249;SDS011;109;19.806;-70.704;2023-03-01T09:59:30;15.70;;;9.70;;
249;SDS011;109;19.806;-70.704;2023-03-01T10:02:26;13.73;;;10.00;;
249;SDS011;109;19.806;-70.704;2023-03-01T10:05:29;14.80;;;10.07;;
249;SDS011;109;19.806;-70.704;2023-03-01T10:10:58;12.80;;;9.80;;
249;SDS011;109;19.806;-70.704;2023-03-01T10:16:18;15.23;;;9.90;;
249;SDS011;109;19.806;-70.704;2023-03-01T10:19:05;16.47;;;9.73;;
249;SDS011;109;19.806;-70.704;2023-03-01T10:21:51;17.70;;;9.37;;
249;SDS011;109;19.806;-70.704;2023-03-01T10:24:25;13.20;;;9.60;;
249;SDS011;109;19.806;-70.704;2023-03-01T10:27:17;13.70;;;9.70;;
249;SDS011;109;19.806;-70.704;2023-03-01T10:30:13;13.27;;;9.10;;
249;SDS011;109;19.806;-70.704;2023-03-01T10:32:52;15.37;;;8.73;;
249;SDS011;109;19.806;-70.704;2023-03-01T10:35:21;11.23;;;9.10;;
249;SDS011;109;19.806;-70.704;2023-03-01T10:38:03;21.70;;;10.50;;
249;SDS011;109;19.806;-70.704;2023-03-01T10:41:04;27.33;;;10.57;;
249;SDS011;109;19.806;-70.704;2023-03-01T10:43:50;19.83;;;10.30;;
249;SDS011;109;19.806;-70.704;2023-03-01T10:46:40;16.47;;;9.53;;
249;SDS011;109;19.806;-70.704;2023-03-01T10:49:18;16.00;;;10.83;;
249;SDS011;109;19.806;-70.704;2023-03-01T10:51:54;18.60;;;10.57;;
249;SDS011;109;19.806;-70.704;2023-03-01T10:54:22;13.07;;;11.30;;
249;SDS011;109;19.806;-70.704;2023-03-01T11:02:45;18.63;;;12.10;;
249;SDS011;109;19.806;-70.704;2023-03-01T11:05:32;15.93;;;12.07;;
249;SDS011;109;19.806;-70.704;2023-03-01T11:07:59;14.80;;;11.20;;
249;SDS011;109;19.806;-70.704;2023-03-01T11:10:32;21.70;;;12.50;;
249;SDS011;109;19.806;-70.704;2023-03-01T11:13:14;20.67;;;11.70;;
249;SDS011;109;19.806;-70.704;2023-03-01T11:15:43;20.67;;;11.43;;
249;SDS011;109;19.806;-70.704;2023-03-01T11:18:26;20.57;;;11.47;;
249;SDS011;109;19.806;-70.704;2023-03-01T11:20:54;22.77;;;11.30;;
249;SDS011;109;19.806;-70.704;2023-03-01T11:23:22;15.27;;;10.73;;
249;SDS011;109;19.806;-70.704;2023-03-01T11:25:54;13.37;;;10.07;;
249;SDS011;109;19.806;-70.704;2023-03-01T11:28:23;16.70;;;10.17;;
249;SDS011;109;19.806;-70.704;2023-03-01T11:30:53;20.43;;;10.37;;
249;SDS011;109;19.806;-70.704;2023-03-01T11:33:39;17.13;;;10.90;;
249;SDS011;109;19.806;-70.704;2023-03-01T11:36:21;17.20;;;10.60;;
249;SDS011;109;19.806;-70.704;2023-03-01T11:38:57;15.43;;;10.00;;
249;SDS011;109;19.806;-70.704;2023-03-01T11:41:39;28.53;;;11.87;;
249;SDS011;109;19.806;-70.704;2023-03-01T11:44:30;16.47;;;10.40;;
249;SDS011;109;19.806;-70.704;2023-03-01T11:50:16;18.43;;;11.43;;
249;SDS011;109;19.806;-70.704;2023-03-01T11:52:52;30.00;;;13.27;;
249;SDS011;109;19.806;-70.704;2023-03-01T11:58:59;18.37;;;11.33;;
249;SDS011;109;19.806;-70.704;2023-03-01T12:01:30;16.20;;;11.10;;
249;SDS011;109;19.806;-70.704;2023-03-01T12:04:11;19.90;;;11.10;;
249;SDS011;109;19.806;-70.704;2023-03-01T12:07:00;21.50;;;13.40;;
249;SDS011;109;19.806;-70.704;2023-03-01T12:09:36;31.00;;;14.70;;
249;SDS011;109;19.806;-70.704;2023-03-01T12:12:11;27.87;;;12.67;;
249;SDS011;109;19.806;-70.704;2023-03-01T12:14:57;22.70;;;13.20;;
249;SDS011;109;19.806;-70.704;2023-03-01T12:20:35;20.43;;;12.87;;
249;SDS011;109;19.806;-70.704;2023-03-01T12:40:30;17.00;;;10.07;;
249;SDS011;109;19.806;-70.704;2023-03-01T12:43:08;23.93;;;12.37;;
249;SDS011;109;19.806;-70.704;2023-03-01T12:46:25;17.53;;;9.23;;
249;SDS011;109;19.806;-70.704;2023-03-01T12:51:39;17.30;;;8.10;;
249;SDS011;109;19.806;-70.704;2023-03-01T12:54:16;13.70;;;7.80;;
249;SDS011;109;19.806;-70.704;2023-03-01T12:57:18;12.00;;;7.60;;
249;SDS011;109;19.806;-70.704;2023-03-01T13:11:04;13.70;;;6.70;;
249;SDS011;109;19.806;-70.704;2023-03-01T13:13:37;11.23;;;6.93;;
249;SDS011;109;19.806;-70.704;2023-03-01T13:16:20;14.40;;;6.80;;
249;SDS011;109;19.806;-70.704;2023-03-01T13:18:49;7.23;;;5.87;;
249;SDS011;109;19.806;-70.704;2023-03-01T13:21:20;12.73;;;6.70;;
249;SDS011;109;19.806;-70.704;2023-03-01T13:23:56;11.70;;;7.30;;
249;SDS011;109;19.806;-70.704;2023-03-01T13:26:23;11.27;;;6.80;;
249;SDS011;109;19.806;-70.704;2023-03-01T13:28:56;12.93;;;6.70;;
249;SDS011;109;19.806;-70.704;2023-03-01T13:33:55;14.63;;;6.90;;
249;SDS011;109;19.806;-70.704;2023-03-01T13:44:26;9.03;;;5.83;;
249;SDS011;109;19.806;-70.704;2023-03-01T13:47:00;11.47;;;6.13;;
249;SDS011;109;19.806;-70.704;2023-03-01T13:49:45;10.60;;;6.67;;
249;SDS011;109;19.806;-70.704;2023-03-01T13:52:38;11.53;;;5.77;;
249;SDS011;109;19.806;-70.704;2023-03-01T13:57:44;14.60;;;6.43;;
249;SDS011;109;19.806;-70.704;2023-03-01T14:03:03;8.60;;;5.67;;
249;SDS011;109;19.806;-70.704;2023-03-01T14:05:30;11.53;;;6.77;;
249;SDS011;109;19.806;-70.704;2023-03-01T14:07:57;11.77;;;5.33;;
249;SDS011;109;19.806;-70.704;2023-03-01T14:10:25;8.30;;;6.07;;
249;SDS011;109;19.806;-70.704;2023-03-01T14:13:31;13.27;;;6.70;;
249;SDS011;109;19.806;-70.704;2023-03-01T14:16:12;12.10;;;5.80;;
249;SDS011;109;19.806;-70.704;2023-03-01T14:21:24;23.47;;;7.10;;
249;SDS011;109;19.806;-70.704;2023-03-01T14:23:52;25.53;;;6.97;;
249;SDS011;109;19.806;-70.704;2023-03-01T14:26:22;22.67;;;7.17;;
249;SDS011;109;19.806;-70.704;2023-03-01T14:28:49;15.20;;;7.23;;
249;SDS011;109;19.806;-70.704;2023-03-01T14:31:29;31.73;;;9.03;;
249;SDS011;109;19.806;-70.704;2023-03-01T14:34:01;23.20;;;7.23;;
249;SDS011;109;19.806;-70.704;2023-03-01T14:36:29;24.73;;;7.40;;
249;SDS011;109;19.806;-70.704;2023-03-01T14:38:57;17.63;;;7.20;;
249;SDS011;109;19.806;-70.704;2023-03-01T14:41:32;25.67;;;6.93;;
249;SDS011;109;19.806;-70.704;2023-03-01T14:44:05;26.67;;;7.40;;
249;SDS011;109;19.806;-70.704;2023-03-01T14:46:39;33.93;;;8.80;;
249;SDS011;109;19.806;-70.704;2023-03-01T14:49:17;25.93;;;7.47;;
249;SDS011;109;19.806;-70.704;2023-03-01T14:54:31;24.23;;;7.60;;
249;SDS011;109;19.806;-70.704;2023-03-01T14:57:23;12.83;;;6.40;;
249;SDS011;109;19.806;-70.704;2023-03-01T14:59:52;25.70;;;7.60;;
249;SDS011;109;19.806;-70.704;2023-03-01T15:02:21;13.10;;;6.10;;
249;SDS011;109;19.806;-70.704;2023-03-01T15:04:51;29.80;;;8.73;;
249;SDS011;109;19.806;-70.704;2023-03-01T15:07:22;25.40;;;5.83;;
249;SDS011;109;19.806;-70.704;2023-03-01T15:09:53;23.00;;;6.90;;
249;SDS011;109;19.806;-70.704;2023-03-01T15:14:58;19.30;;;5.50;;
249;SDS011;109;19.806;-70.704;2023-03-01T15:17:32;13.70;;;5.63;;
249;SDS011;109;19.806;-70.704;2023-03-01T15:20:22;18.87;;;6.80;;
249;SDS011;109;19.806;-70.704;2023-03-01T15:22:51;10.80;;;5.20;;
249;SDS011;109;19.806;-70.704;2023-03-01T15:25:20;14.30;;;5.17;;
249;SDS011;109;19.806;-70.704;2023-03-01T15:27:50;19.33;;;5.80;;
249;SDS011;109;19.806;-70.704;2023-03-01T15:30:19;16.17;;;6.10;;
249;SDS011;109;19.806;-70.704;2023-03-01T15:32:54;31.93;;;7.07;;
249;SDS011;109;19.806;-70.704;2023-03-01T15:35:47;26.87;;;6.77;;
249;SDS011;109;19.806;-70.704;2023-03-01T15:38:26;33.50;;;7.50;;
249;SDS011;109;19.806;-70.704;2023-03-01T15:40:53;28.53;;;6.40;;
249;SDS011;109;19.806;-70.704;2023-03-01T15:46:31;27.47;;;7.00;;
249;SDS011;109;19.806;-70.704;2023-03-01T15:49:01;32.83;;;9.87;;
249;SDS011;109;19.806;-70.704;2023-03-01T15:51:33;22.93;;;6.30;;
249;SDS011;109;19.806;-70.704;2023-03-01T15:54:23;26.00;;;7.47;;
249;SDS011;109;19.806;-70.704;2023-03-01T15:56:49;41.80;;;8.07;;
249;SDS011;109;19.806;-70.704;2023-03-01T15:59:16;21.03;;;6.80;;
249;SDS011;109;19.806;-70.704;2023-03-01T16:01:44;19.37;;;7.47;;
249;SDS011;109;19.806;-70.704;2023-03-01T16:04:12;37.30;;;7.47;;
249;SDS011;109;19.806;-70.704;2023-03-01T16:06:46;47.10;;;8.83;;
249;SDS011;109;19.806;-70.704;2023-03-01T16:09:20;31.57;;;7.27;;
249;SDS011;109;19.806;-70.704;2023-03-01T16:11:51;22.87;;;7.43;;
249;SDS011;109;19.806;-70.704;2023-03-01T16:14:19;42.73;;;9.17;;
249;SDS011;109;19.806;-70.704;2023-03-01T16:16:46;14.20;;;5.97;;
249;SDS011;109;19.806;-70.704;2023-03-01T16:19:15;61.07;;;10.33;;
249;SDS011;109;19.806;-70.704;2023-03-01T16:21:42;37.67;;;9.00;;
249;SDS011;109;19.806;-70.704;2023-03-01T16:24:12;22.83;;;6.60;;
249;SDS011;109;19.806;-70.704;2023-03-01T16:26:39;54.83;;;8.77;;
249;SDS011;109;19.806;-70.704;2023-03-01T16:29:05;42.50;;;8.10;;
249;SDS011;109;19.806;-70.704;2023-03-01T16:31:32;41.33;;;8.97;;
249;SDS011;109;19.806;-70.704;2023-03-01T16:33:59;31.60;;;6.93;;
249;SDS011;109;19.806;-70.704;2023-03-01T16:36:26;24.67;;;6.60;;
249;SDS011;109;19.806;-70.704;2023-03-01T16:38:54;37.07;;;6.90;;
249;SDS011;109;19.806;-70.704;2023-03-01T16:41:23;48.27;;;9.17;;
249;SDS011;109;19.806;-70.704;2023-03-01T16:43:50;20.03;;;5.80;;
249;SDS011;109;19.806;-70.704;2023-03-01T16:46:21;18.80;;;5.10;;
249;SDS011;109;19.806;-70.704;2023-03-01T16:48:49;33.87;;;7.57;;
249;SDS011;109;19.806;-70.704;2023-03-01T16:51:16;23.33;;;6.53;;
249;SDS011;109;19.806;-70.704;2023-03-01T16:53:43;20.70;;;7.17;;
249;SDS011;109;19.806;-70.704;2023-03-01T16:56:13;18.80;;;7.00;;
249;SDS011;109;19.806;-70.704;2023-03-01T16:58:43;38.43;;;6.97;;
249;SDS011;109;19.806;-70.704;2023-03-01T17:01:11;52.03;;;8.47;;
249;SDS011;109;19.806;-70.704;2023-03-01T17:03:39;24.37;;;6.27;;
249;SDS011;109;19.806;-70.704;2023-03-01T17:06:08;33.47;;;9.27;;
249;SDS011;109;19.806;-70.704;2023-03-01T17:08:37;57.13;;;11.10;;
249;SDS011;109;19.806;-70.704;2023-03-01T17:11:08;46.00;;;8.83;;